createdAt,value
2023-05-06T00:00:36.716Z,20.62
2023-05-06T00:01:36.724Z,20.56
2023-05-06T00:02:36.762Z,20.53
2023-05-06T00:03:36.836Z,20.70
2023-05-06T00:04:36.697Z,20.51
2023-05-06T00:05:36.662Z,20.47
2023-05-06T00:06:36.650Z,20.59
2023-05-06T00:07:36.638Z,20.51
2023-05-06T00:08:36.669Z,20.49
2023-05-06T00:09:36.608Z,20.49
2023-05-06T00:10:36.593Z,20.53
2023-05-06T00:11:36.573Z,20.56
2023-05-06T00:12:36.595Z,20.58
2023-05-06T00:13:36.554Z,20.53
2023-05-06T00:14:36.547Z,20.51
2023-05-06T00:15:36.543Z,20.47
2023-05-06T00:16:36.565Z,20.66
2023-05-06T00:17:36.581Z,20.51
2023-05-06T00:18:36.504Z,20.64
2023-05-06T00:19:36.463Z,20.56
2023-05-06T00:20:36.479Z,20.68
2023-05-06T00:21:36.448Z,20.59
2023-05-06T00:22:36.428Z,20.62
2023-05-06T00:23:36.440Z,20.53
2023-05-06T00:24:36.403Z,20.59
2023-05-06T00:25:36.386Z,20.68
2023-05-06T00:26:36.382Z,20.70
2023-05-06T00:27:36.383Z,20.70
2023-05-06T00:28:36.357Z,20.68
2023-05-06T00:29:36.335Z,20.64
2023-05-06T00:30:36.326Z,20.74
2023-05-06T00:31:36.363Z,20.72
2023-05-06T00:32:36.328Z,20.70
2023-05-06T00:33:36.289Z,20.70
2023-05-06T00:34:36.307Z,20.66
2023-05-06T00:35:36.264Z,20.62
2023-05-06T00:36:36.280Z,20.72
2023-05-06T00:37:36.250Z,20.66
2023-05-06T00:38:36.227Z,20.64
2023-05-06T00:39:36.238Z,20.64
2023-05-06T00:40:36.198Z,20.53
2023-05-06T00:41:36.197Z,20.58
2023-05-06T00:42:36.173Z,20.64
2023-05-06T00:43:36.160Z,20.76
2023-05-06T00:44:36.162Z,20.72
2023-05-06T00:45:36.151Z,20.66
2023-05-06T00:46:36.117Z,20.72
2023-05-06T00:47:36.160Z,20.68
2023-05-06T00:48:36.132Z,20.66
2023-05-06T00:49:36.089Z,20.72
2023-05-06T00:50:36.100Z,20.72
2023-05-06T00:51:36.078Z,20.72
2023-05-06T00:52:36.065Z,20.64
2023-05-06T00:53:36.029Z,20.64
2023-05-06T00:54:36.042Z,20.72
2023-05-06T00:55:36.005Z,20.70
2023-05-06T00:56:35.992Z,20.66
2023-05-06T00:57:35.983Z,20.70
2023-05-06T00:58:35.979Z,20.66
2023-05-06T00:59:35.941Z,20.76
2023-05-06T01:00:35.998Z,20.74
2023-05-06T01:01:35.978Z,20.72
2023-05-06T01:02:46.159Z,20.80
2023-05-06T01:03:36.017Z,20.62
2023-05-06T01:04:35.964Z,20.76
2023-05-06T01:05:35.876Z,20.70
2023-05-06T01:06:35.858Z,20.74
2023-05-06T01:07:35.855Z,20.74
2023-05-06T01:08:35.833Z,20.62
2023-05-06T01:09:35.833Z,20.66
2023-05-06T01:10:35.831Z,20.80
2023-05-06T01:11:35.848Z,20.68
2023-05-06T01:12:35.845Z,20.78
2023-05-06T01:13:35.781Z,20.76
2023-05-06T01:14:35.781Z,20.72
2023-05-06T01:15:35.752Z,20.72
2023-05-06T01:16:35.757Z,20.72
2023-05-06T01:17:35.771Z,20.82
2023-05-06T01:18:35.727Z,20.76
2023-05-06T01:19:35.709Z,20.74
2023-05-06T01:20:35.734Z,20.78
2023-05-06T01:21:35.711Z,20.76
2023-05-06T01:22:35.681Z,20.82
2023-05-06T01:23:35.675Z,20.84
2023-05-06T01:24:35.645Z,20.86
2023-05-06T01:25:35.636Z,20.80
2023-05-06T01:26:35.613Z,20.89
2023-05-06T01:27:35.605Z,20.89
2023-05-06T01:28:35.578Z,20.89
2023-05-06T01:29:35.583Z,20.89
2023-05-06T01:30:35.553Z,20.82
2023-05-06T01:31:35.574Z,20.86
2023-05-06T01:32:35.573Z,20.97
2023-05-06T01:33:35.523Z,20.93
2023-05-06T01:34:35.516Z,20.84
2023-05-06T01:35:35.494Z,20.93
2023-05-06T01:36:35.477Z,20.97
2023-05-06T01:37:35.473Z,20.97
2023-05-06T01:38:35.451Z,21.01
2023-05-06T01:39:35.453Z,20.95
2023-05-06T01:40:35.429Z,21.10
2023-05-06T01:41:35.438Z,21.03
2023-05-06T01:42:35.416Z,20.99
2023-05-06T01:43:35.398Z,20.99
2023-05-06T01:44:35.398Z,21.05
2023-05-06T01:45:35.383Z,20.97
2023-05-06T01:46:35.471Z,20.99
2023-05-06T01:47:35.396Z,21.14
2023-05-06T01:48:35.329Z,21.03
2023-05-06T01:49:35.329Z,21.05
2023-05-06T01:50:35.326Z,21.03
2023-05-06T01:51:35.344Z,21.01
2023-05-06T01:52:35.289Z,21.01
2023-05-06T01:53:35.280Z,20.93
2023-05-06T01:54:35.257Z,21.03
2023-05-06T01:55:35.251Z,20.97
2023-05-06T01:56:35.234Z,21.08
2023-05-06T01:57:35.216Z,21.03
2023-05-06T01:58:35.213Z,21.08
2023-05-06T01:59:35.207Z,21.05
2023-05-06T02:00:35.481Z,21.05
2023-05-06T02:01:35.206Z,21.10
2023-05-06T02:02:35.234Z,21.12
2023-05-06T02:03:35.204Z,21.08
2023-05-06T02:04:35.134Z,21.05
2023-05-06T02:05:35.151Z,21.01
2023-05-06T02:06:35.106Z,21.14
2023-05-06T02:07:35.100Z,21.03
2023-05-06T02:08:35.087Z,21.10
2023-05-06T02:09:35.059Z,21.10
2023-05-06T02:10:35.084Z,21.12
2023-05-06T02:11:35.105Z,21.10
2023-05-06T02:12:35.114Z,21.10
2023-05-06T02:13:35.078Z,21.08
2023-05-06T02:14:35.010Z,21.18
2023-05-06T02:15:35.032Z,21.16
2023-05-06T02:16:35.166Z,21.25
2023-05-06T02:17:35.011Z,21.18
2023-05-06T02:18:34.961Z,21.20
2023-05-06T02:19:34.964Z,21.20
2023-05-06T02:20:34.948Z,21.25
2023-05-06T02:21:34.926Z,21.29
2023-05-06T02:22:34.894Z,21.27
2023-05-06T02:23:34.905Z,21.31
2023-05-06T02:24:34.880Z,21.40
2023-05-06T02:25:34.874Z,21.47
2023-05-06T02:26:34.867Z,21.47
2023-05-06T02:27:34.907Z,21.45
2023-05-06T02:41:27.256Z,22.20
2023-05-06T02:49:42.939Z,21.92
2023-05-06T02:49:48.950Z,21.12
2023-05-06T02:50:49.126Z,20.41
2023-05-06T02:51:48.805Z,20.06
2023-05-06T02:54:36.421Z,20.74
2023-05-06T02:55:39.556Z,20.80
2023-05-06T02:57:00.846Z,20.82
2023-05-06T03:14:41.782Z,22.37
2023-05-06T04:25:13.387Z,20.80
2023-05-06T04:25:19.591Z,20.68
2023-05-06T04:26:19.254Z,20.23
2023-05-06T04:27:19.192Z,20.08
2023-05-06T04:28:19.216Z,19.92
2023-05-06T04:29:19.231Z,19.85
2023-05-06T04:30:19.232Z,19.75
2023-05-06T04:31:19.153Z,19.89
2023-05-06T04:32:19.483Z,19.85
2023-05-06T04:34:57.974Z,21.38
2023-05-06T04:36:59.136Z,23.04
2023-05-06T04:37:59.632Z,22.84
2023-05-06T04:38:59.402Z,22.76
2023-05-06T04:41:33.261Z,23.71
2023-05-06T04:42:44.998Z,23.48
2023-05-06T04:43:34.199Z,23.35
2023-05-06T04:45:59.756Z,24.33
2023-05-06T04:47:00.554Z,24.08
2023-05-06T04:48:00.399Z,23.77
2023-05-06T04:49:00.287Z,23.51
2023-05-06T04:50:00.299Z,23.27
2023-05-06T04:51:12.682Z,23.04
2023-05-06T04:52:00.347Z,22.86
2023-05-06T04:53:00.233Z,22.71
2023-05-06T04:54:00.208Z,22.42
2023-05-06T04:55:00.255Z,22.34
2023-05-06T04:56:00.165Z,22.25
2023-05-06T04:57:00.781Z,22.15
2023-05-06T04:58:00.199Z,22.06
2023-05-06T04:59:10.267Z,21.97
2023-05-06T05:00:00.324Z,21.85
2023-05-06T05:01:00.253Z,21.67
2023-05-06T05:02:00.224Z,21.69
2023-05-06T05:03:00.300Z,21.65
2023-05-06T05:04:00.619Z,21.49
2023-05-06T05:05:00.142Z,21.47
2023-05-06T05:06:00.070Z,21.53
2023-05-06T05:07:00.243Z,21.42
2023-05-06T05:08:00.115Z,21.42
2023-05-06T05:09:00.019Z,21.36
2023-05-06T05:10:00.014Z,21.40
2023-05-06T05:11:10.411Z,21.36
2023-05-06T05:12:00.064Z,21.33
2023-05-06T05:13:00.130Z,21.27
2023-05-06T05:14:01.892Z,21.23
2023-05-06T05:14:59.933Z,21.20
2023-05-06T05:15:59.905Z,21.16
2023-05-06T05:16:59.980Z,21.12
2023-05-06T05:17:59.944Z,21.16
2023-05-06T05:19:01.574Z,21.14
2023-05-06T05:19:59.902Z,21.14
2023-05-06T05:20:59.880Z,21.14
2023-05-06T05:21:59.881Z,21.10
2023-05-06T05:22:59.799Z,21.12
2023-05-06T05:23:59.821Z,21.10
2023-05-06T05:24:59.803Z,21.10
2023-05-06T05:26:11.857Z,21.18
2023-05-06T05:27:07.657Z,21.08
2023-05-06T05:27:59.855Z,21.10
2023-05-06T05:28:59.827Z,21.16
2023-05-06T05:29:59.737Z,21.08
2023-05-06T05:30:59.887Z,21.05
2023-05-06T05:31:59.668Z,21.18
2023-05-06T05:32:59.746Z,21.01
2023-05-06T05:33:59.626Z,21.05
2023-05-06T05:34:59.644Z,21.01
2023-05-06T05:35:59.630Z,21.01
2023-05-06T05:36:59.622Z,21.14
2023-05-06T05:37:59.578Z,21.05
2023-05-06T05:38:59.587Z,21.10
2023-05-06T05:39:59.564Z,21.08
2023-05-06T05:40:59.594Z,21.03
2023-05-06T05:41:59.563Z,20.93
2023-05-06T05:42:59.573Z,20.95
2023-05-06T05:43:59.514Z,21.05
2023-05-06T05:44:59.536Z,21.01
2023-05-06T05:45:59.499Z,20.91
2023-05-06T05:46:59.493Z,21.03
2023-05-06T05:47:59.548Z,20.93
2023-05-06T05:48:59.459Z,20.93
2023-05-06T05:49:59.426Z,21.05
2023-05-06T05:50:59.430Z,20.95
2023-05-06T05:51:59.435Z,20.99
2023-05-06T05:52:59.385Z,21.01
2023-05-06T05:53:59.375Z,20.93
2023-05-06T05:54:59.409Z,20.99
2023-05-06T05:55:59.367Z,20.95
2023-05-06T05:56:59.351Z,20.95
2023-05-06T05:57:59.328Z,20.93
2023-05-06T05:58:59.320Z,20.93
2023-05-06T05:59:59.292Z,20.93
2023-05-06T06:00:59.389Z,20.97
2023-05-06T06:01:59.292Z,20.95
2023-05-06T06:02:59.426Z,20.95
2023-05-06T06:03:59.507Z,20.95
2023-05-06T06:04:59.285Z,20.97
2023-05-06T06:05:59.253Z,20.91
2023-05-06T06:06:59.219Z,20.93
2023-05-06T06:07:59.563Z,21.01
2023-05-06T06:08:59.209Z,20.89
2023-05-06T06:09:59.187Z,20.95
2023-05-06T06:10:59.216Z,20.93
2023-05-06T06:11:59.175Z,20.97
2023-05-06T06:12:59.169Z,20.99
2023-05-06T06:13:59.150Z,20.84
2023-05-06T06:14:59.126Z,20.91
2023-05-06T06:15:59.192Z,20.91
2023-05-06T06:16:59.073Z,20.86
2023-05-06T06:17:59.175Z,20.74
2023-05-06T06:18:59.072Z,20.89
2023-05-06T06:19:59.056Z,20.76
2023-05-06T06:20:59.029Z,20.86
2023-05-06T06:21:59.562Z,20.91
2023-05-06T06:22:59.000Z,20.80
2023-05-06T06:23:58.981Z,20.74
2023-05-06T06:24:58.984Z,20.84
2023-05-06T06:25:59.004Z,20.80
2023-05-06T06:26:58.958Z,20.76
2023-05-06T06:27:58.947Z,20.74
2023-05-06T06:28:58.945Z,20.76
2023-05-06T06:29:58.907Z,20.68
2023-05-06T06:30:58.906Z,20.64
2023-05-06T06:31:58.973Z,20.68
2023-05-06T06:32:58.913Z,20.72
2023-05-06T06:33:58.877Z,20.64
2023-05-06T06:34:58.871Z,20.76
2023-05-06T06:35:58.828Z,20.74
2023-05-06T06:36:58.840Z,20.80
2023-05-06T06:37:58.819Z,20.74
2023-05-06T06:38:58.820Z,20.59
2023-05-06T06:39:58.767Z,20.70
2023-05-06T06:40:58.777Z,20.64
2023-05-06T06:41:58.758Z,20.68
2023-05-06T06:42:58.780Z,20.59
2023-05-06T06:43:58.724Z,20.64
2023-05-06T06:44:58.716Z,20.59
2023-05-06T06:45:58.841Z,20.62
2023-05-06T06:46:58.701Z,20.56
2023-05-06T06:47:58.665Z,20.62
2023-05-06T06:48:58.645Z,20.53
2023-05-06T06:49:58.652Z,20.62
2023-05-06T06:50:58.660Z,20.56
2023-05-06T06:51:58.627Z,20.51
2023-05-06T06:52:58.607Z,20.49
2023-05-06T06:53:58.603Z,20.47
2023-05-06T06:54:58.642Z,20.56
2023-05-06T06:55:58.590Z,20.51
2023-05-06T06:56:58.564Z,20.51
2023-05-06T06:57:58.545Z,20.53
2023-05-06T06:58:58.562Z,20.56
2023-05-06T06:59:58.516Z,20.56
2023-05-06T07:00:58.548Z,20.51
2023-05-06T07:01:58.503Z,20.51
2023-05-06T07:02:58.502Z,20.51
2023-05-06T07:03:58.488Z,20.45
2023-05-06T07:04:58.460Z,20.41
2023-05-06T07:05:58.443Z,20.47
2023-05-06T07:06:58.408Z,20.41
2023-05-06T07:07:58.414Z,20.41
2023-05-06T07:08:58.388Z,20.41
2023-05-06T07:09:58.366Z,20.35
2023-05-06T07:10:58.409Z,20.39
2023-05-06T07:11:58.389Z,20.31
2023-05-06T07:12:58.400Z,20.39
2023-05-06T07:13:58.320Z,20.35
2023-05-06T07:14:58.330Z,20.31
2023-05-06T07:15:58.317Z,20.31
2023-05-06T07:16:58.283Z,20.25
2023-05-06T07:17:58.341Z,20.25
2023-05-06T07:18:58.249Z,20.25
2023-05-06T07:19:58.249Z,20.27
2023-05-06T07:20:58.248Z,20.27
2023-05-06T07:21:58.229Z,20.31
2023-05-06T07:22:58.224Z,20.31
2023-05-06T07:23:58.179Z,20.25
2023-05-06T07:24:58.175Z,20.33
2023-05-06T07:25:58.149Z,20.29
2023-05-06T07:26:58.174Z,20.31
2023-05-06T07:27:58.139Z,20.37
2023-05-06T07:28:58.134Z,20.39
2023-05-06T07:29:58.123Z,20.33
2023-05-06T07:30:58.115Z,20.33
2023-05-06T07:31:58.083Z,20.35
2023-05-06T07:32:58.138Z,20.33
2023-05-06T07:33:58.061Z,20.39
2023-05-06T07:34:58.052Z,20.37
2023-05-06T07:35:58.022Z,20.33
2023-05-06T07:36:58.033Z,20.29
2023-05-06T07:37:58.010Z,20.23
2023-05-06T07:38:58.011Z,20.19
2023-05-06T07:39:57.976Z,20.16
2023-05-06T07:40:57.970Z,20.14
2023-05-06T07:41:57.948Z,20.08
2023-05-06T07:42:57.936Z,20.06
2023-05-06T07:43:57.928Z,20.04
2023-05-06T07:44:57.924Z,20.02
2023-05-06T07:45:57.998Z,19.96
2023-05-06T07:46:58.101Z,19.94
2023-05-06T07:47:57.906Z,19.94
2023-05-06T07:48:57.890Z,19.94
2023-05-06T07:49:57.866Z,19.96
2023-05-06T07:50:57.840Z,20.00
2023-05-06T07:51:57.856Z,19.98
2023-05-06T07:52:57.809Z,20.08
2023-05-06T07:53:57.806Z,19.94
2023-05-06T07:54:57.803Z,19.94
2023-05-06T07:55:57.770Z,19.91
2023-05-06T07:56:57.791Z,19.89
2023-05-06T07:57:57.732Z,19.81
2023-05-06T07:58:57.744Z,19.79
2023-05-06T07:59:57.748Z,19.79
2023-05-06T08:00:57.719Z,19.77
2023-05-06T08:01:57.690Z,19.81
2023-05-06T08:02:57.899Z,19.85
2023-05-06T08:03:57.908Z,19.81
2023-05-06T08:04:57.738Z,19.81
2023-05-06T08:05:57.689Z,19.79
2023-05-06T08:06:57.666Z,19.87
2023-05-06T08:07:57.633Z,19.92
2023-05-06T08:08:57.613Z,19.77
2023-05-06T08:09:57.586Z,19.72
2023-05-06T08:10:57.571Z,19.72
2023-05-06T08:11:57.567Z,19.68
2023-05-06T08:12:57.581Z,19.70
2023-05-06T08:13:57.554Z,19.74
2023-05-06T08:14:57.575Z,19.75
2023-05-06T08:15:57.517Z,19.75
2023-05-06T08:16:57.511Z,19.74
2023-05-06T08:17:58.797Z,19.75
2023-05-06T08:18:57.489Z,19.70
2023-05-06T08:19:57.459Z,19.68
2023-05-06T08:20:57.481Z,19.59
2023-05-06T08:21:57.510Z,19.55
2023-05-06T08:22:57.452Z,19.55
2023-05-06T08:23:57.416Z,19.53
2023-05-06T08:24:57.404Z,19.48
2023-05-06T08:25:57.403Z,19.44
2023-05-06T08:26:57.406Z,19.39
2023-05-06T08:27:57.384Z,19.31
2023-05-06T08:28:57.353Z,19.40
2023-05-06T08:30:03.846Z,19.37
2023-05-06T08:30:57.318Z,19.30
2023-05-06T08:31:57.418Z,19.24
2023-05-06T08:32:57.343Z,19.19
2023-05-06T08:33:57.288Z,19.15
2023-05-06T08:34:57.299Z,19.22
2023-05-06T08:35:57.260Z,19.15
2023-05-06T08:36:57.256Z,19.10
2023-05-06T08:37:57.244Z,19.10
2023-05-06T08:38:57.230Z,19.17
2023-05-06T08:39:59.286Z,19.14
2023-05-06T08:40:57.202Z,19.10
2023-05-06T08:41:57.192Z,19.05
2023-05-06T08:42:57.173Z,19.08
2023-05-06T08:43:57.189Z,19.03
2023-05-06T08:44:57.169Z,19.03
2023-05-06T08:45:57.254Z,19.00
2023-05-06T08:46:57.135Z,19.03
2023-05-06T08:47:57.120Z,18.87
2023-05-06T08:48:57.092Z,18.98
2023-05-06T08:49:57.082Z,18.84
2023-05-06T08:50:57.069Z,18.82
2023-05-06T08:51:57.063Z,18.87
2023-05-06T08:52:57.040Z,18.82
2023-05-06T08:53:57.032Z,18.74
2023-05-06T08:54:57.041Z,18.75
2023-05-06T08:55:57.003Z,18.69
2023-05-06T08:56:56.985Z,18.77
2023-05-06T08:57:56.990Z,18.69
2023-05-06T08:58:56.997Z,18.62
2023-05-06T08:59:56.951Z,18.60
2023-05-06T09:00:57.021Z,18.65
2023-05-06T09:01:56.967Z,18.54
2023-05-06T09:02:57.047Z,18.60
2023-05-06T09:03:56.921Z,18.59
2023-05-06T09:04:56.943Z,18.62
2023-05-06T09:05:56.885Z,18.52
2023-05-06T09:06:56.861Z,18.69
2023-05-06T09:07:56.856Z,18.57
2023-05-06T09:08:56.861Z,18.47
2023-05-06T09:09:56.850Z,18.60
2023-05-06T09:10:56.816Z,18.52
2023-05-06T09:11:56.807Z,18.54
2023-05-06T09:12:56.807Z,18.44
2023-05-06T09:13:56.776Z,18.31
2023-05-06T09:14:56.767Z,18.37
2023-05-06T09:15:56.754Z,18.41
2023-05-06T09:16:56.781Z,18.34
2023-05-06T09:17:56.765Z,18.25
2023-05-06T09:18:56.729Z,18.25
2023-05-06T09:19:56.688Z,18.05
2023-05-06T09:20:57.740Z,18.09
2023-05-06T09:21:56.683Z,17.99
2023-05-06T09:22:56.659Z,18.02
2023-05-06T09:23:56.646Z,18.10
2023-05-06T09:24:56.725Z,18.15
2023-05-06T09:25:56.633Z,18.09
2023-05-06T09:26:56.625Z,18.05
2023-05-06T09:27:56.669Z,18.07
2023-05-06T09:28:56.583Z,17.99
2023-05-06T09:29:56.570Z,17.91
2023-05-06T09:30:56.617Z,18.01
2023-05-06T09:31:56.546Z,18.09
2023-05-06T09:32:56.628Z,18.10
2023-05-06T09:33:56.514Z,18.10
2023-05-06T09:34:56.518Z,18.05
2023-05-06T09:35:56.498Z,18.09
2023-05-06T09:36:56.490Z,17.94
2023-05-06T09:37:56.489Z,17.93
2023-05-06T09:38:56.515Z,17.96
2023-05-06T09:39:56.433Z,17.87
2023-05-06T09:40:56.438Z,17.78
2023-05-06T09:41:56.436Z,17.66
2023-05-06T09:42:56.409Z,17.73
2023-05-06T09:43:56.393Z,17.81
2023-05-06T09:44:56.394Z,17.72
2023-05-06T09:45:56.382Z,17.79
2023-05-06T09:46:56.358Z,17.85
2023-05-06T09:47:56.400Z,17.70
2023-05-06T09:48:56.329Z,17.63
2023-05-06T09:49:56.307Z,17.69
2023-05-06T09:50:56.294Z,17.73
2023-05-06T09:51:56.297Z,17.96
2023-05-06T09:52:56.271Z,18.31
2023-05-06T09:53:56.287Z,18.44
2023-05-06T09:54:56.242Z,18.79
2023-05-06T09:55:56.224Z,19.05
2023-05-06T09:56:56.233Z,19.40
2023-05-06T09:57:56.205Z,19.74
2023-05-06T09:58:56.181Z,19.59
2023-05-06T09:59:56.168Z,19.19
2023-05-06T10:00:56.160Z,19.14
2023-05-06T10:01:56.188Z,18.94
2023-05-06T10:02:56.237Z,18.77
2023-05-06T10:03:56.269Z,18.31
2023-05-06T10:04:56.295Z,18.23
2023-05-06T10:05:56.095Z,18.18
2023-05-06T10:06:56.090Z,18.20
2023-05-06T10:07:56.074Z,18.44
2023-05-06T10:08:56.057Z,18.96
2023-05-06T10:09:56.040Z,19.62
2023-05-06T10:10:56.040Z,19.77
2023-05-06T10:11:56.018Z,19.57
2023-05-06T10:12:56.045Z,19.59
2023-05-06T10:13:55.988Z,19.49
2023-05-06T10:14:56.011Z,19.08
2023-05-06T10:15:56.003Z,18.72
2023-05-06T10:16:55.963Z,18.74
2023-05-06T10:17:55.989Z,18.67
2023-05-06T10:18:55.966Z,18.69
2023-05-06T10:19:55.901Z,18.39
2023-05-06T10:20:55.917Z,18.20
2023-05-06T10:21:55.878Z,18.05
2023-05-06T10:22:56.047Z,17.75
2023-05-06T10:23:55.866Z,17.60
2023-05-06T10:24:55.841Z,17.58
2023-05-06T10:25:55.827Z,18.15
2023-05-06T10:26:55.808Z,19.75
2023-05-06T10:27:55.815Z,20.86
2023-05-06T10:28:55.782Z,21.97
2023-05-06T10:29:55.757Z,22.54
2023-05-06T10:30:55.753Z,22.84
2023-05-06T10:31:55.793Z,23.17
2023-05-06T10:32:55.790Z,23.09
2023-05-06T10:33:55.716Z,22.86
2023-05-06T10:34:55.721Z,23.25
2023-05-06T10:35:55.697Z,24.15
2023-05-06T10:36:55.672Z,25.79
2023-05-06T10:37:55.698Z,28.21
2023-05-06T10:38:55.637Z,29.63
2023-05-06T10:39:55.613Z,28.99
2023-05-06T10:40:55.624Z,27.61
2023-05-06T10:41:55.592Z,26.69
2023-05-06T10:42:55.590Z,27.00
2023-05-06T10:43:55.589Z,28.65
2023-05-06T10:44:55.557Z,29.11
2023-05-06T10:45:55.575Z,30.50
2023-05-06T10:46:55.548Z,33.77
2023-05-06T10:47:55.574Z,35.74
2023-05-06T10:48:55.505Z,35.93
2023-05-06T10:49:55.480Z,35.26
2023-05-06T10:50:55.478Z,33.36
2023-05-06T10:51:55.456Z,35.20
2023-05-06T10:52:55.452Z,38.27
2023-05-06T10:53:55.436Z,41.48
2023-05-06T10:54:55.427Z,44.07
2023-05-06T10:55:55.413Z,44.74
2023-05-06T10:56:55.429Z,44.50
2023-05-06T10:57:55.396Z,43.25
2023-05-06T10:58:55.379Z,44.93
2023-05-06T10:59:55.400Z,48.77
2023-05-06T11:00:55.382Z,53.20
2023-05-06T11:01:55.323Z,51.05
2023-05-06T11:02:55.408Z,46.07
2023-05-06T11:03:55.333Z,42.32
2023-05-06T11:04:55.277Z,39.62
2023-05-06T11:05:55.275Z,40.47
2023-05-06T11:06:55.357Z,43.65
2023-05-06T11:07:55.248Z,44.74
2023-05-06T11:08:55.241Z,45.87
2023-05-06T11:09:55.237Z,49.62
2023-05-06T11:10:55.204Z,55.33
2023-05-06T11:11:55.187Z,60.22
2023-05-06T11:12:55.229Z,60.31
2023-05-06T11:13:55.172Z,63.88
2023-05-06T11:14:55.141Z,67.67
2023-05-06T11:15:55.144Z,69.31
2023-05-06T11:16:55.176Z,65.23
2023-05-06T11:17:55.203Z,65.07
2023-05-06T11:18:55.103Z,63.92
2023-05-06T11:19:55.089Z,67.62
2023-05-06T11:20:55.092Z,73.93
2023-05-06T11:21:55.052Z,77.59
2023-05-06T11:22:55.070Z,74.19
2023-05-06T11:23:55.075Z,74.19
2023-05-06T11:24:55.015Z,73.34
2023-05-06T11:25:55.001Z,70.48
2023-05-06T11:26:54.991Z,69.02
2023-05-06T11:27:55.002Z,67.62
2023-05-06T11:28:54.975Z,67.07
2023-05-06T11:29:54.950Z,71.45
2023-05-06T11:30:54.999Z,72.45
2023-05-06T11:31:54.919Z,79.82
2023-05-06T11:32:54.933Z,82.11
2023-05-06T11:33:54.903Z,87.19
2023-05-06T11:34:54.904Z,86.65
2023-05-06T11:35:54.867Z,86.56
2023-05-06T11:36:54.857Z,89.64
2023-05-06T11:37:54.851Z,88.49
2023-05-06T11:38:54.832Z,93.89
2023-05-06T11:39:54.846Z,89.54
2023-05-06T11:40:54.788Z,90.02
2023-05-06T11:41:54.786Z,95.62
2023-05-06T11:42:54.762Z,90.91
2023-05-06T11:43:54.779Z,86.83
2023-05-06T11:44:54.759Z,86.02
2023-05-06T11:45:54.774Z,88.68
2023-05-06T11:46:54.735Z,83.85
2023-05-06T11:47:54.837Z,76.17
2023-05-06T11:48:54.685Z,73.08
2023-05-06T11:49:54.694Z,77.01
2023-05-06T11:50:54.655Z,80.99
2023-05-06T11:51:54.669Z,84.62
2023-05-06T11:52:54.632Z,88.40
2023-05-06T11:53:54.613Z,89.54
2023-05-06T11:54:54.654Z,90.61
2023-05-06T11:55:54.593Z,94.09
2023-05-06T11:56:54.587Z,94.19
2023-05-06T11:57:54.593Z,93.15
2023-05-06T11:58:54.564Z,92.74
2023-05-06T11:59:54.570Z,94.53
2023-05-06T12:00:54.541Z,94.85
2023-05-06T12:01:54.516Z,98.49
2023-05-06T12:02:54.643Z,95.00
2023-05-06T12:03:54.628Z,94.53
2023-05-06T12:04:54.544Z,94.64
2023-05-06T12:05:54.474Z,95.16
2023-05-06T12:06:54.438Z,99.79
2023-05-06T12:07:54.433Z,103.65
2023-05-06T12:08:54.417Z,104.96
2023-05-06T12:09:54.435Z,106.09
2023-05-06T12:10:54.430Z,101.43
2023-05-06T12:11:54.378Z,94.57
2023-05-06T12:12:54.379Z,95.29
2023-05-06T12:13:54.966Z,96.21
2023-05-06T12:14:54.358Z,100.21
2023-05-06T12:15:54.361Z,104.49
2023-05-06T12:16:56.048Z,97.56
2023-05-06T12:17:54.327Z,90.32
2023-05-06T12:18:54.292Z,89.64
2023-05-06T12:19:54.279Z,91.21
2023-05-06T12:20:54.258Z,94.74
2023-05-06T12:21:54.245Z,98.02
2023-05-06T12:22:55.476Z,97.85
2023-05-06T12:23:54.238Z,99.31
2023-05-06T12:24:54.227Z,102.81
2023-05-06T12:25:54.202Z,117.91
2023-05-06T12:26:54.200Z,125.66
2023-05-06T12:27:54.947Z,129.18
2023-05-06T12:28:54.174Z,127.98
2023-05-06T12:29:54.171Z,112.41
2023-05-06T12:30:54.119Z,99.31
2023-05-06T12:31:54.156Z,86.74
2023-05-06T12:32:54.193Z,71.45
2023-05-06T12:33:56.089Z,59.23
2023-05-06T12:34:54.104Z,55.51
2023-05-06T12:35:54.060Z,50.37
2023-05-06T12:36:54.092Z,45.12
2023-05-06T12:37:54.052Z,54.39
2023-05-06T12:38:54.035Z,64.92
2023-05-06T12:39:55.679Z,71.89
2023-05-06T12:40:54.013Z,83.60
2023-05-06T12:41:53.997Z,87.28
2023-05-06T12:42:53.969Z,88.96
2023-05-06T12:43:53.969Z,88.77
2023-05-06T12:44:53.953Z,88.02
2023-05-06T12:45:55.076Z,85.57
2023-05-06T12:46:53.909Z,86.74
2023-05-06T12:47:53.938Z,83.18
2023-05-06T12:48:53.900Z,72.57
2023-05-06T12:49:53.889Z,72.51
2023-05-06T12:50:53.904Z,80.21
2023-05-06T12:51:53.854Z,76.66
2023-05-06T12:52:53.845Z,80.13
2023-05-06T12:53:53.853Z,80.05
2023-05-06T12:54:53.813Z,76.52
2023-05-06T12:55:53.807Z,81.79
2023-05-06T12:56:53.806Z,78.25
2023-05-06T12:57:54.609Z,80.91
2023-05-06T12:58:53.773Z,86.74
2023-05-06T12:59:53.787Z,92.94
2023-05-06T13:00:53.777Z,99.79
2023-05-06T13:01:53.727Z,105.82
2023-05-06T13:02:53.806Z,109.23
2023-05-06T13:03:53.693Z,104.43
2023-05-06T13:04:53.695Z,103.00
2023-05-06T13:05:53.684Z,100.70
2023-05-06T13:06:53.667Z,91.71
2023-05-06T13:07:53.661Z,81.31
2023-05-06T13:08:53.624Z,87.37
2023-05-06T13:09:53.652Z,92.32
2023-05-06T13:10:53.608Z,97.74
2023-05-06T13:11:53.592Z,100.94
2023-05-06T13:12:53.635Z,104.56
2023-05-06T13:13:53.577Z,109.30
2023-05-06T13:14:53.548Z,104.49
2023-05-06T13:15:53.555Z,97.45
2023-05-06T13:16:53.578Z,97.51
2023-05-06T13:17:53.649Z,95.05
2023-05-06T13:18:53.505Z,94.21
2023-05-06T13:19:53.496Z,101.31
2023-05-06T13:20:53.502Z,109.59
2023-05-06T13:21:53.470Z,108.66
2023-05-06T13:22:55.054Z,111.20
2023-05-06T13:23:53.438Z,113.79
2023-05-06T13:24:53.420Z,109.59
2023-05-06T13:26:03.737Z,99.97
2023-05-06T13:26:53.415Z,110.91
2023-05-06T13:27:53.377Z,121.62
2023-05-06T13:28:53.365Z,127.59
2023-05-06T13:29:53.363Z,128.18
2023-05-06T13:30:53.371Z,126.43
2023-05-06T13:31:53.340Z,114.89
2023-05-06T13:32:53.436Z,109.30
2023-05-06T13:33:53.310Z,105.69
2023-05-06T13:34:53.305Z,105.69
2023-05-06T13:35:53.302Z,103.58
2023-05-06T13:36:53.273Z,100.09
2023-05-06T13:37:53.281Z,101.06
2023-05-06T13:38:53.267Z,115.45
2023-05-06T13:39:53.234Z,119.69
2023-05-06T13:40:53.224Z,112.25
2023-05-06T13:41:53.208Z,105.29
2023-05-06T13:42:53.184Z,99.08
2023-05-06T13:43:53.171Z,91.51
2023-05-06T13:44:53.163Z,79.29
2023-05-06T13:45:53.217Z,69.36
2023-05-06T13:46:53.246Z,59.06
2023-05-06T13:47:53.253Z,51.65
2023-05-06T13:48:53.125Z,49.06
2023-05-06T13:49:53.142Z,49.35
2023-05-06T13:50:53.114Z,48.80
2023-05-06T13:51:53.085Z,48.71
2023-05-06T13:52:53.085Z,49.85
2023-05-06T13:53:53.047Z,49.65
2023-05-06T13:54:53.023Z,47.74
2023-05-06T13:55:53.056Z,49.21
2023-05-06T13:56:53.009Z,50.31
2023-05-06T13:57:53.016Z,52.63
2023-05-06T13:58:53.030Z,58.07
2023-05-06T13:59:52.988Z,60.53
2023-05-06T14:00:52.953Z,58.24
2023-05-06T14:01:53.036Z,56.23
2023-05-06T14:02:52.947Z,52.07
2023-05-06T14:03:52.950Z,51.43
2023-05-06T14:04:53.003Z,53.41
2023-05-06T14:05:52.923Z,54.14
2023-05-06T14:06:52.919Z,50.95
2023-05-06T14:07:52.872Z,58.56
2023-05-06T14:08:52.846Z,64.62
2023-05-06T14:09:52.844Z,66.91
2023-05-06T14:10:52.856Z,64.02
2023-05-06T14:11:52.833Z,65.38
2023-05-06T14:12:52.872Z,70.01
2023-05-06T14:13:52.780Z,68.90
2023-05-06T14:14:52.763Z,63.15
2023-05-06T14:15:52.792Z,61.69
2023-05-06T14:16:52.833Z,56.46
2023-05-06T14:17:52.857Z,49.23
2023-05-06T14:18:52.778Z,45.57
2023-05-06T14:19:52.729Z,40.35
2023-05-06T14:20:52.738Z,43.38
2023-05-06T14:21:52.704Z,48.23
2023-05-06T14:22:52.918Z,52.37
2023-05-06T14:23:52.666Z,52.90
2023-05-06T14:24:52.673Z,53.41
2023-05-06T14:25:52.683Z,54.82
2023-05-06T14:26:52.680Z,49.71
2023-05-06T14:27:52.617Z,43.52
2023-05-06T14:28:52.610Z,39.81
2023-05-06T14:29:52.587Z,38.70
2023-05-06T14:30:52.591Z,37.25
2023-05-06T14:31:52.604Z,34.44
2023-05-06T14:32:52.590Z,32.78
2023-05-06T14:33:52.528Z,29.91
2023-05-06T14:34:52.513Z,28.00
2023-05-06T14:35:52.518Z,25.68
2023-05-06T14:36:52.509Z,24.55
2023-05-06T14:37:52.524Z,30.48
2023-05-06T14:38:52.461Z,37.65
2023-05-06T14:39:52.464Z,44.93
2023-05-06T14:40:52.443Z,49.67
2023-05-06T14:41:52.435Z,52.93
2023-05-06T14:42:52.445Z,59.15
2023-05-06T14:43:52.410Z,71.45